UAL962 KEWR-EDDB
Flight info
| Callsign | UAL962 |
|---|---|
| Flight time | N/A |
| Altitude | 37000 |
| Route | GREKI DCT JUDDS DCT MARTN DCT CBIRD DCT QUBIS N869A DORYY/M083F390 DCT 58N050W 59N040W 59N030W 58N020W DCT SUNOT DCT KESIX/N0481F390 DCT AMLAD DCT AGPED/N0478F410 DCT RENEQ DCT BUMIL L619 VIBIS T209 OGBER OGBER1L |
| Aircraft | B772/H-SDE2E3FGHIJ5LORVWXY/LB1D1 |
Departure
| Time | 2026-05-01 08:35 |
|---|---|
| Airport | Newark Liberty International Airport (KEWR) |
Arrival
| Time | N/A |
|---|---|
| Airport | Berlin Brandenburg Airport (EDDB) |
| Time | Latitude | Longitude | Altitude | Speed | Heading |
|---|---|---|---|---|---|
| 2026-05-01 07:51 | 40.69534 | -74.17451 | 33 ft | 0 kts | 168° |
| 2026-05-01 07:52 | 40.69533 | -74.17460 | 33 ft | 6 kts | 153° |
| 2026-05-01 07:53 | 40.69534 | -74.17451 | 28 ft | 0 kts | 168° |
| 2026-05-01 08:22 | 40.69537 | -74.17451 | 41 ft | 3 kts | 168° |
| 2026-05-01 08:22 | 40.69563 | -74.17458 | 23 ft | 4 kts | 171° |
| 2026-05-01 08:22 | 40.69589 | -74.17463 | -7 ft | 4 kts | 171° |
| 2026-05-01 08:23 | 40.69614 | -74.17463 | 26 ft | 4 kts | 204° |
| 2026-05-01 08:23 | 40.69635 | -74.17445 | 24 ft | 4 kts | 220° |
| 2026-05-01 08:23 | 40.69656 | -74.17421 | 24 ft | 4 kts | 220° |
| 2026-05-01 08:23 | 40.69676 | -74.17398 | 25 ft | 4 kts | 220° |
| 2026-05-01 08:24 | 40.69697 | -74.17376 | 24 ft | 4 kts | 221° |
| 2026-05-01 08:24 | 40.69717 | -74.17353 | 24 ft | 4 kts | 217° |
| 2026-05-01 08:24 | 40.69740 | -74.17335 | 24 ft | 4 kts | 194° |
| 2026-05-01 08:24 | 40.69765 | -74.17329 | 24 ft | 4 kts | 209° |
| 2026-05-01 08:25 | 40.69783 | -74.17307 | 24 ft | 4 kts | 219° |
| 2026-05-01 08:25 | 40.69804 | -74.17292 | 25 ft | 4 kts | 177° |
| 2026-05-01 08:25 | 40.69822 | -74.17306 | 25 ft | 4 kts | 124° |
| 2026-05-01 08:25 | 40.69834 | -74.17329 | 26 ft | 0 kts | 131° |
| 2026-05-01 08:28 | 40.69817 | -74.17303 | 25 ft | 8 kts | 132° |
| 2026-05-01 08:28 | 40.69779 | -74.17253 | 26 ft | 8 kts | 135° |
| 2026-05-01 08:28 | 40.69734 | -74.17202 | 26 ft | 10 kts | 142° |
| 2026-05-01 08:28 | 40.69667 | -74.17145 | 26 ft | 12 kts | 152° |
| 2026-05-01 08:29 | 40.69587 | -74.17101 | 26 ft | 12 kts | 161° |
| 2026-05-01 08:29 | 40.69502 | -74.17076 | 26 ft | 12 kts | 170° |
| 2026-05-01 08:29 | 40.69415 | -74.17069 | 26 ft | 13 kts | 181° |
| 2026-05-01 08:29 | 40.69313 | -74.17100 | 31 ft | 16 kts | 202° |
| 2026-05-01 08:30 | 40.69213 | -74.17160 | 26 ft | 16 kts | 205° |
| 2026-05-01 08:30 | 40.69112 | -74.17221 | 30 ft | 16 kts | 202° |
| 2026-05-01 08:30 | 40.69012 | -74.17287 | 26 ft | 16 kts | 208° |
| 2026-05-01 08:30 | 40.68913 | -74.17351 | 26 ft | 16 kts | 207° |
| 2026-05-01 08:31 | 40.68813 | -74.17415 | 26 ft | 16 kts | 205° |
| 2026-05-01 08:31 | 40.68713 | -74.17479 | 27 ft | 16 kts | 206° |
| 2026-05-01 08:31 | 40.68612 | -74.17543 | 27 ft | 16 kts | 205° |
| 2026-05-01 08:31 | 40.68512 | -74.17606 | 27 ft | 16 kts | 206° |
| 2026-05-01 08:32 | 40.68412 | -74.17670 | 27 ft | 16 kts | 206° |
| 2026-05-01 08:32 | 40.68312 | -74.17734 | 26 ft | 16 kts | 206° |
| 2026-05-01 08:32 | 40.68212 | -74.17797 | 26 ft | 16 kts | 206° |
| 2026-05-01 08:32 | 40.68112 | -74.17862 | 26 ft | 16 kts | 206° |
| 2026-05-01 08:33 | 40.68012 | -74.17926 | 26 ft | 16 kts | 205° |
| 2026-05-01 08:33 | 40.67908 | -74.17991 | 27 ft | 17 kts | 206° |
| 2026-05-01 08:33 | 40.67800 | -74.18060 | 27 ft | 17 kts | 206° |
| 2026-05-01 08:33 | 40.67701 | -74.18123 | 27 ft | 12 kts | 204° |
| 2026-05-01 08:34 | 40.67627 | -74.18088 | 27 ft | 12 kts | 135° |
| 2026-05-01 08:34 | 40.67573 | -74.18002 | 27 ft | 12 kts | 123° |
| 2026-05-01 08:34 | 40.67592 | -74.17914 | 27 ft | 6 kts | 24° |
| 2026-05-01 08:34 | 40.67632 | -74.17886 | 26 ft | 10 kts | 27° |
| 2026-05-01 08:35 | 40.67811 | -74.17772 | 30 ft | 54 kts | 25° |
| 2026-05-01 08:35 | 40.68360 | -74.17424 | 28 ft | 119 kts | 25° |
| 2026-05-01 08:35 | 40.69266 | -74.16850 | 37 ft | 173 kts | 24° |
| 2026-05-01 08:35 | 40.70371 | -74.16139 | 685 ft | 176 kts | 24° |
| 2026-05-01 08:36 | 40.71376 | -74.15297 | 1694 ft | 169 kts | 38° |
| 2026-05-01 08:36 | 40.72208 | -74.14218 | 2155 ft | 172 kts | 36° |
| 2026-05-01 08:36 | 40.73101 | -74.13148 | 2542 ft | 177 kts | 37° |
| 2026-05-01 08:36 | 40.74031 | -74.12029 | 2911 ft | 184 kts | 37° |
| 2026-05-01 08:37 | 40.75023 | -74.10846 | 3117 ft | 199 kts | 35° |
| 2026-05-01 08:37 | 40.76305 | -74.10128 | 3197 ft | 211 kts | 359° |
| 2026-05-01 08:37 | 40.77746 | -74.10652 | 3376 ft | 228 kts | 326° |
| 2026-05-01 08:37 | 40.78739 | -74.12332 | 3707 ft | 244 kts | 289° |
| 2026-05-01 08:38 | 40.79090 | -74.14556 | 4112 ft | 252 kts | 283° |
| 2026-05-01 08:38 | 40.79389 | -74.16855 | 4782 ft | 255 kts | 280° |
| 2026-05-01 08:38 | 40.79623 | -74.19158 | 5556 ft | 254 kts | 278° |
| 2026-05-01 08:38 | 40.79845 | -74.21461 | 6221 ft | 253 kts | 284° |
| 2026-05-01 08:39 | 40.80710 | -74.23451 | 6636 ft | 262 kts | 319° |
| 2026-05-01 08:39 | 40.82374 | -74.24414 | 7278 ft | 269 kts | 352° |
| 2026-05-01 08:39 | 40.84224 | -74.23962 | 7924 ft | 279 kts | 23° |
| 2026-05-01 08:39 | 40.85939 | -74.22722 | 8350 ft | 285 kts | 24° |
| 2026-05-01 08:40 | 40.89560 | -74.20414 | 9633 ft | 292 kts | 20° |
| 2026-05-01 08:40 | 40.91425 | -74.19322 | 10220 ft | 297 kts | 19° |
| 2026-05-01 08:40 | 40.93385 | -74.18214 | 10438 ft | 317 kts | 19° |
| 2026-05-01 08:41 | 40.95484 | -74.17059 | 10598 ft | 337 kts | 18° |
| 2026-05-01 08:41 | 40.97722 | -74.15848 | 10749 ft | 359 kts | 18° |
| 2026-05-01 08:41 | 41.00064 | -74.14594 | 11051 ft | 375 kts | 18° |
| 2026-05-01 08:41 | 41.02524 | -74.13280 | 11594 ft | 385 kts | 18° |
| 2026-05-01 08:42 | 41.05033 | -74.11946 | 12290 ft | 392 kts | 18° |
| 2026-05-01 08:42 | 41.07582 | -74.10593 | 13055 ft | 398 kts | 18° |
| 2026-05-01 08:42 | 41.10173 | -74.09221 | 13838 ft | 403 kts | 18° |
| 2026-05-01 08:42 | 41.12799 | -74.07830 | 14536 ft | 408 kts | 18° |
| 2026-05-01 08:43 | 41.15450 | -74.06426 | 15250 ft | 412 kts | 17° |
| 2026-05-01 08:43 | 41.18125 | -74.05009 | 15962 ft | 417 kts | 17° |
| 2026-05-01 08:43 | 41.20833 | -74.03574 | 16637 ft | 421 kts | 17° |
| 2026-05-01 08:43 | 41.23572 | -74.02123 | 17309 ft | 426 kts | 17° |
| 2026-05-01 08:44 | 41.26335 | -74.00655 | 18000 ft | 430 kts | 17° |
| 2026-05-01 08:44 | 41.29135 | -73.99164 | 18570 ft | 436 kts | 17° |
| 2026-05-01 08:44 | 41.31960 | -73.97662 | 19134 ft | 440 kts | 17° |
| 2026-05-01 08:44 | 41.34817 | -73.96140 | 19706 ft | 444 kts | 17° |
| 2026-05-01 08:45 | 41.37697 | -73.94605 | 20260 ft | 448 kts | 17° |
| 2026-05-01 08:45 | 41.40599 | -73.93057 | 20796 ft | 452 kts | 17° |
| 2026-05-01 08:45 | 41.43536 | -73.91489 | 21316 ft | 457 kts | 17° |
| 2026-05-01 08:45 | 41.46504 | -73.89903 | 21838 ft | 461 kts | 17° |
| 2026-05-01 08:46 | 41.49490 | -73.88305 | 22387 ft | 466 kts | 17° |
| 2026-05-01 08:46 | 41.52512 | -73.86685 | 22916 ft | 470 kts | 17° |
| 2026-05-01 08:46 | 41.55555 | -73.85052 | 23431 ft | 474 kts | 17° |
| 2026-05-01 08:46 | 41.58634 | -73.83398 | 23864 ft | 478 kts | 17° |
| 2026-05-01 08:47 | 41.61682 | -73.81760 | 24320 ft | 480 kts | 17° |
| 2026-05-01 08:47 | 41.64783 | -73.80082 | 24783 ft | 483 kts | 18° |
| 2026-05-01 08:47 | 41.67893 | -73.78351 | 25221 ft | 486 kts | 18° |
| 2026-05-01 08:47 | 41.71015 | -73.76589 | 25628 ft | 488 kts | 18° |
| 2026-05-01 08:48 | 41.74157 | -73.74810 | 26026 ft | 491 kts | 18° |
| 2026-05-01 08:48 | 41.77313 | -73.73029 | 26430 ft | 494 kts | 18° |
| 2026-05-01 08:48 | 41.80491 | -73.71242 | 26812 ft | 496 kts | 18° |
| 2026-05-01 08:48 | 41.83681 | -73.69449 | 27178 ft | 499 kts | 18° |
| 2026-05-01 08:49 | 41.86894 | -73.67642 | 27556 ft | 502 kts | 18° |
| 2026-05-01 08:49 | 41.90123 | -73.65822 | 27892 ft | 505 kts | 18° |
| 2026-05-01 08:49 | 41.93369 | -73.63991 | 28192 ft | 507 kts | 18° |
| 2026-05-01 08:49 | 41.96627 | -73.62149 | 28504 ft | 509 kts | 18° |
| 2026-05-01 08:50 | 41.99898 | -73.60298 | 28809 ft | 512 kts | 18° |
| 2026-05-01 08:50 | 42.03184 | -73.58436 | 29092 ft | 514 kts | 18° |
| 2026-05-01 08:50 | 42.06484 | -73.56565 | 29362 ft | 516 kts | 19° |
| 2026-05-01 08:50 | 42.09806 | -73.54678 | 29585 ft | 519 kts | 19° |
| 2026-05-01 08:51 | 42.13131 | -73.52787 | 29847 ft | 520 kts | 19° |
| 2026-05-01 08:51 | 42.16462 | -73.50889 | 30157 ft | 519 kts | 19° |
| 2026-05-01 08:51 | 42.19793 | -73.48989 | 30453 ft | 519 kts | 19° |
| 2026-05-01 08:51 | 42.23118 | -73.47092 | 30727 ft | 520 kts | 19° |
| 2026-05-01 08:52 | 42.26452 | -73.45189 | 30951 ft | 521 kts | 19° |
| 2026-05-01 08:52 | 42.29789 | -73.43281 | 31198 ft | 521 kts | 19° |
| 2026-05-01 08:52 | 42.33127 | -73.41370 | 31459 ft | 521 kts | 19° |
| 2026-05-01 08:52 | 42.36463 | -73.39458 | 31710 ft | 521 kts | 19° |
| 2026-05-01 08:53 | 42.39804 | -73.37541 | 31960 ft | 522 kts | 19° |
| 2026-05-01 08:53 | 42.43146 | -73.35622 | 32222 ft | 522 kts | 20° |
| 2026-05-01 08:53 | 42.45366 | -73.34345 | 32369 ft | 523 kts | 20° |
| 2026-05-01 08:53 | 42.48720 | -73.32413 | 32602 ft | 524 kts | 20° |
| 2026-05-01 08:54 | 42.52072 | -73.30481 | 32874 ft | 524 kts | 20° |
| 2026-05-01 08:54 | 42.55422 | -73.28544 | 33080 ft | 525 kts | 21° |
| 2026-05-01 08:54 | 42.58719 | -73.26383 | 33329 ft | 527 kts | 26° |
| 2026-05-01 08:54 | 42.61856 | -73.23783 | 33602 ft | 529 kts | 32° |
| 2026-05-01 08:55 | 42.64896 | -73.20971 | 33823 ft | 530 kts | 33° |
| 2026-05-01 08:55 | 42.67934 | -73.18120 | 34067 ft | 530 kts | 33° |
| 2026-05-01 08:55 | 42.70961 | -73.15274 | 34317 ft | 529 kts | 33° |
| 2026-05-01 08:55 | 42.73989 | -73.12439 | 34581 ft | 527 kts | 33° |
| 2026-05-01 08:56 | 42.77017 | -73.09621 | 34813 ft | 527 kts | 33° |
| 2026-05-01 08:56 | 42.80049 | -73.06812 | 34860 ft | 528 kts | 33° |
| 2026-05-01 08:56 | 42.86124 | -73.01197 | 34902 ft | 526 kts | 32° |
| 2026-05-01 08:57 | 42.92170 | -72.95601 | 34895 ft | 525 kts | 32° |
| 2026-05-01 08:57 | 42.98195 | -72.90009 | 34892 ft | 524 kts | 33° |
| 2026-05-01 08:58 | 43.04215 | -72.84404 | 34898 ft | 523 kts | 33° |
| 2026-05-01 08:58 | 43.10189 | -72.78826 | 34892 ft | 523 kts | 33° |
| 2026-05-01 08:59 | 43.16199 | -72.73203 | 34895 ft | 524 kts | 33° |
| 2026-05-01 08:59 | 43.22214 | -72.67561 | 34889 ft | 524 kts | 33° |
| 2026-05-01 09:00 | 43.28225 | -72.61909 | 34907 ft | 524 kts | 33° |
| 2026-05-01 09:00 | 43.34226 | -72.56256 | 34892 ft | 524 kts | 34° |
| 2026-05-01 09:01 | 43.40231 | -72.50579 | 34899 ft | 523 kts | 34° |
| 2026-05-01 09:01 | 43.46230 | -72.44895 | 34896 ft | 523 kts | 34° |
| 2026-05-01 09:02 | 43.52222 | -72.39207 | 34890 ft | 523 kts | 34° |
| 2026-05-01 09:02 | 43.58207 | -72.33510 | 34890 ft | 523 kts | 34° |
| 2026-05-01 09:03 | 43.64184 | -72.27807 | 34906 ft | 523 kts | 34° |
| 2026-05-01 09:03 | 43.70165 | -72.22086 | 34899 ft | 523 kts | 34° |
| 2026-05-01 09:04 | 43.76142 | -72.16354 | 34879 ft | 523 kts | 34° |
| 2026-05-01 09:04 | 43.82112 | -72.10618 | 34871 ft | 522 kts | 35° |
| 2026-05-01 09:05 | 43.88077 | -72.04869 | 34884 ft | 522 kts | 35° |
| 2026-05-01 09:05 | 43.94030 | -71.99115 | 34889 ft | 522 kts | 35° |
| 2026-05-01 09:06 | 43.99992 | -71.93340 | 34885 ft | 523 kts | 36° |
| 2026-05-01 09:06 | 44.05931 | -71.87575 | 34883 ft | 523 kts | 36° |
| 2026-05-01 09:07 | 44.11882 | -71.81783 | 34892 ft | 523 kts | 36° |
| 2026-05-01 09:07 | 44.17843 | -71.75966 | 34885 ft | 523 kts | 36° |
| 2026-05-01 09:08 | 44.23798 | -71.70141 | 34884 ft | 523 kts | 36° |
| 2026-05-01 09:08 | 44.29761 | -71.64293 | 34866 ft | 523 kts | 36° |
| 2026-05-01 09:09 | 44.35675 | -71.58478 | 34872 ft | 523 kts | 36° |
| 2026-05-01 09:09 | 44.41628 | -71.52610 | 34872 ft | 523 kts | 36° |
| 2026-05-01 09:10 | 44.47598 | -71.46711 | 34878 ft | 528 kts | 37° |
| 2026-05-01 09:10 | 44.53624 | -71.40740 | 34879 ft | 533 kts | 37° |
| 2026-05-01 09:11 | 44.59704 | -71.34699 | 34878 ft | 537 kts | 37° |
| 2026-05-01 09:11 | 44.65819 | -71.28609 | 34875 ft | 540 kts | 37° |
| 2026-05-01 09:12 | 44.71956 | -71.22480 | 34851 ft | 542 kts | 37° |
| 2026-05-01 09:12 | 44.78113 | -71.16314 | 34849 ft | 544 kts | 37° |
| 2026-05-01 09:13 | 44.84265 | -71.10121 | 34851 ft | 544 kts | 38° |
| 2026-05-01 09:13 | 44.90125 | -71.03508 | 34845 ft | 542 kts | 42° |
| 2026-05-01 09:14 | 44.95905 | -70.96688 | 34847 ft | 541 kts | 42° |
| 2026-05-01 09:14 | 45.01680 | -70.89867 | 34845 ft | 540 kts | 42° |
| 2026-05-01 09:15 | 45.07457 | -70.83079 | 34837 ft | 540 kts | 42° |
| 2026-05-01 09:15 | 45.13244 | -70.76286 | 34845 ft | 540 kts | 42° |
| 2026-05-01 09:16 | 45.19029 | -70.69480 | 34830 ft | 540 kts | 42° |
| 2026-05-01 09:17 | 45.27688 | -70.59248 | 34827 ft | 540 kts | 42° |
| 2026-05-01 09:17 | 45.36323 | -70.49002 | 34818 ft | 540 kts | 43° |
| 2026-05-01 09:18 | 45.44948 | -70.38723 | 34820 ft | 539 kts | 43° |
| 2026-05-01 09:19 | 45.53554 | -70.28427 | 34804 ft | 538 kts | 43° |
| 2026-05-01 09:20 | 45.62144 | -70.18107 | 34807 ft | 538 kts | 43° |
| 2026-05-01 09:21 | 45.73536 | -70.04352 | 34802 ft | 537 kts | 43° |
| 2026-05-01 09:21 | 45.82095 | -69.93969 | 34793 ft | 537 kts | 43° |
| 2026-05-01 09:22 | 45.93481 | -69.80089 | 34788 ft | 537 kts | 44° |
| 2026-05-01 09:23 | 46.02005 | -69.69647 | 34786 ft | 536 kts | 44° |
| 2026-05-01 09:24 | 46.10510 | -69.59183 | 34788 ft | 536 kts | 44° |
| 2026-05-01 09:25 | 46.21827 | -69.45195 | 34776 ft | 535 kts | 44° |
| 2026-05-01 09:26 | 46.30287 | -69.34681 | 34894 ft | 536 kts | 44° |
| 2026-05-01 09:26 | 46.35922 | -69.27657 | 35212 ft | 533 kts | 44° |
| 2026-05-01 09:26 | 46.38730 | -69.24149 | 35355 ft | 533 kts | 44° |
| 2026-05-01 09:27 | 46.44346 | -69.17117 | 35514 ft | 534 kts | 44° |
| 2026-05-01 09:27 | 46.47157 | -69.13589 | 35616 ft | 534 kts | 44° |
| 2026-05-01 09:28 | 46.52768 | -69.06534 | 35845 ft | 533 kts | 44° |
| 2026-05-01 09:28 | 46.55566 | -69.03009 | 35958 ft | 533 kts | 44° |
| 2026-05-01 09:28 | 46.58329 | -68.99523 | 36049 ft | 533 kts | 44° |
| 2026-05-01 09:29 | 46.66732 | -68.88887 | 36318 ft | 534 kts | 44° |
| 2026-05-01 09:30 | 46.75134 | -68.78211 | 36568 ft | 534 kts | 44° |
| 2026-05-01 09:30 | 46.83501 | -68.67532 | 36755 ft | 532 kts | 44° |
| 2026-05-01 09:31 | 46.89074 | -68.60393 | 36765 ft | 533 kts | 44° |
| 2026-05-01 09:32 | 46.97441 | -68.49636 | 36765 ft | 534 kts | 44° |
| 2026-05-01 09:32 | 47.05812 | -68.38829 | 36764 ft | 535 kts | 44° |
| 2026-05-01 09:33 | 47.11397 | -68.31592 | 36756 ft | 535 kts | 44° |
| 2026-05-01 09:34 | 47.19758 | -68.20716 | 36747 ft | 535 kts | 45° |
| 2026-05-01 09:34 | 47.28110 | -68.09807 | 36755 ft | 535 kts | 45° |
| 2026-05-01 09:35 | 47.36448 | -67.98867 | 36770 ft | 534 kts | 45° |
| 2026-05-01 09:36 | 47.41988 | -67.91570 | 36781 ft | 534 kts | 45° |
| 2026-05-01 09:36 | 47.47527 | -67.84253 | 36807 ft | 534 kts | 45° |
| 2026-05-01 09:37 | 47.53077 | -67.76974 | 36817 ft | 534 kts | 43° |
| 2026-05-01 09:37 | 47.62204 | -67.67532 | 36830 ft | 537 kts | 36° |
| 2026-05-01 09:38 | 47.71542 | -67.58336 | 36830 ft | 537 kts | 37° |
| 2026-05-01 09:39 | 47.80822 | -67.49010 | 36846 ft | 537 kts | 37° |
| 2026-05-01 09:39 | 47.87004 | -67.42747 | 36854 ft | 538 kts | 37° |
| 2026-05-01 09:40 | 47.96245 | -67.33361 | 36857 ft | 538 kts | 37° |
| 2026-05-01 09:41 | 48.02425 | -67.27064 | 36858 ft | 537 kts | 37° |
| 2026-05-01 09:41 | 48.11669 | -67.17613 | 36858 ft | 536 kts | 37° |
| 2026-05-01 09:42 | 48.17820 | -67.11299 | 36862 ft | 535 kts | 37° |
| 2026-05-01 09:43 | 48.29041 | -66.99735 | 36873 ft | 534 kts | 37° |
| 2026-05-01 09:43 | 48.36147 | -66.92379 | 36868 ft | 533 kts | 37° |
| 2026-05-01 09:44 | 48.45299 | -66.82865 | 36865 ft | 533 kts | 37° |
| 2026-05-01 09:45 | 48.51397 | -66.76504 | 36865 ft | 533 kts | 37° |
| 2026-05-01 09:45 | 48.59553 | -66.67965 | 36868 ft | 533 kts | 37° |
| 2026-05-01 09:46 | 48.65634 | -66.61578 | 36869 ft | 532 kts | 37° |
| 2026-05-01 09:46 | 48.71714 | -66.55172 | 36871 ft | 532 kts | 37° |
| 2026-05-01 09:47 | 48.77747 | -66.48796 | 36876 ft | 532 kts | 37° |
| 2026-05-01 09:47 | 48.83812 | -66.42366 | 36869 ft | 532 kts | 37° |
| 2026-05-01 09:48 | 48.89872 | -66.35922 | 36879 ft | 531 kts | 37° |
| 2026-05-01 09:48 | 48.95923 | -66.29469 | 36886 ft | 531 kts | 37° |
| 2026-05-01 09:49 | 49.01974 | -66.22997 | 36889 ft | 531 kts | 37° |
| 2026-05-01 09:49 | 49.08017 | -66.16514 | 36895 ft | 532 kts | 37° |
| 2026-05-01 09:50 | 49.14066 | -66.10004 | 36902 ft | 533 kts | 37° |
| 2026-05-01 09:50 | 49.20122 | -66.03466 | 36917 ft | 533 kts | 37° |
| 2026-05-01 09:51 | 49.26184 | -65.96902 | 36928 ft | 534 kts | 37° |
| 2026-05-01 09:51 | 49.32255 | -65.90308 | 36922 ft | 535 kts | 37° |
| 2026-05-01 09:52 | 49.38328 | -65.83693 | 36934 ft | 536 kts | 37° |
| 2026-05-01 09:52 | 49.44407 | -65.77050 | 36949 ft | 536 kts | 38° |
| 2026-05-01 09:53 | 49.50481 | -65.70391 | 36950 ft | 536 kts | 37° |
| 2026-05-01 09:53 | 49.56545 | -65.63723 | 36957 ft | 535 kts | 37° |
| 2026-05-01 09:54 | 49.62600 | -65.57045 | 36974 ft | 535 kts | 37° |
| 2026-05-01 09:54 | 49.68645 | -65.50355 | 36978 ft | 534 kts | 37° |
| 2026-05-01 09:55 | 49.74633 | -65.43709 | 36996 ft | 533 kts | 37° |
| 2026-05-01 09:55 | 49.80653 | -65.37006 | 36997 ft | 533 kts | 37° |
| 2026-05-01 09:56 | 49.86659 | -65.30297 | 36999 ft | 532 kts | 37° |
| 2026-05-01 09:56 | 49.92654 | -65.23581 | 37018 ft | 531 kts | 37° |
| 2026-05-01 09:57 | 49.98633 | -65.16861 | 37027 ft | 530 kts | 37° |
| 2026-05-01 09:57 | 50.04607 | -65.10125 | 37033 ft | 530 kts | 38° |
| 2026-05-01 09:58 | 50.10536 | -65.03419 | 37034 ft | 530 kts | 38° |
| 2026-05-01 09:58 | 50.16496 | -64.96657 | 37048 ft | 530 kts | 38° |
| 2026-05-01 09:59 | 50.22457 | -64.89873 | 37062 ft | 530 kts | 38° |
| 2026-05-01 09:59 | 50.28396 | -64.83091 | 37077 ft | 530 kts | 38° |
| 2026-05-01 10:00 | 50.34339 | -64.76287 | 37074 ft | 528 kts | 38° |
| 2026-05-01 10:00 | 50.40258 | -64.69486 | 37088 ft | 527 kts | 38° |
| 2026-05-01 10:01 | 50.46158 | -64.62685 | 37093 ft | 525 kts | 38° |
| 2026-05-01 10:01 | 50.51998 | -64.55933 | 37106 ft | 524 kts | 38° |
| 2026-05-01 10:02 | 50.57899 | -64.49088 | 37103 ft | 523 kts | 38° |
| 2026-05-01 10:02 | 50.63747 | -64.42282 | 37109 ft | 523 kts | 38° |
| 2026-05-01 10:03 | 50.69596 | -64.35455 | 37115 ft | 523 kts | 38° |
| 2026-05-01 10:03 | 50.75395 | -64.28663 | 37121 ft | 523 kts | 38° |
| 2026-05-01 10:04 | 50.81239 | -64.21799 | 37118 ft | 524 kts | 38° |
| 2026-05-01 10:04 | 50.87083 | -64.14911 | 37122 ft | 524 kts | 38° |
| 2026-05-01 10:05 | 50.92932 | -64.07997 | 37132 ft | 525 kts | 38° |
| 2026-05-01 10:05 | 50.98776 | -64.01066 | 37134 ft | 525 kts | 38° |
| 2026-05-01 10:06 | 51.04629 | -63.94101 | 37125 ft | 526 kts | 38° |
| 2026-05-01 10:06 | 51.10477 | -63.87119 | 37135 ft | 526 kts | 38° |
| 2026-05-01 10:07 | 51.16327 | -63.80113 | 37138 ft | 526 kts | 39° |
| 2026-05-01 10:07 | 51.22177 | -63.73084 | 37131 ft | 527 kts | 39° |
| 2026-05-01 10:08 | 51.30935 | -63.62518 | 37140 ft | 526 kts | 39° |
| 2026-05-01 10:09 | 51.36774 | -63.55446 | 37134 ft | 526 kts | 39° |
| 2026-05-01 10:09 | 51.42602 | -63.48363 | 37140 ft | 526 kts | 39° |
| 2026-05-01 10:10 | 51.48420 | -63.41266 | 37138 ft | 525 kts | 39° |
| 2026-05-01 10:10 | 51.57135 | -63.30597 | 37138 ft | 525 kts | 39° |
| 2026-05-01 10:11 | 51.62939 | -63.23461 | 37140 ft | 525 kts | 39° |
| 2026-05-01 10:11 | 51.68729 | -63.16319 | 37139 ft | 524 kts | 39° |
| 2026-05-01 10:12 | 51.74473 | -63.09210 | 37138 ft | 523 kts | 39° |
| 2026-05-01 10:13 | 51.83079 | -62.98515 | 37143 ft | 523 kts | 39° |
| 2026-05-01 10:13 | 51.88841 | -62.91326 | 37144 ft | 522 kts | 39° |
| 2026-05-01 10:14 | 51.97459 | -62.80527 | 37156 ft | 522 kts | 39° |
| 2026-05-01 10:14 | 52.03202 | -62.73301 | 37156 ft | 522 kts | 39° |
| 2026-05-01 10:15 | 52.08324 | -62.66835 | 37159 ft | 522 kts | 39° |
| 2026-05-01 10:15 | 52.14059 | -62.59573 | 37163 ft | 522 kts | 39° |
| 2026-05-01 10:16 | 52.19780 | -62.52305 | 37166 ft | 521 kts | 39° |
| 2026-05-01 10:17 | 52.28348 | -62.41373 | 37172 ft | 521 kts | 39° |
| 2026-05-01 10:17 | 52.36896 | -62.30412 | 37171 ft | 521 kts | 39° |
| 2026-05-01 10:18 | 52.45426 | -62.19418 | 37184 ft | 520 kts | 39° |
| 2026-05-01 10:19 | 52.51114 | -62.12057 | 37181 ft | 520 kts | 39° |
| 2026-05-01 10:19 | 52.56786 | -62.04690 | 37187 ft | 520 kts | 39° |
| 2026-05-01 10:20 | 52.65301 | -61.93585 | 37189 ft | 521 kts | 39° |
| 2026-05-01 10:20 | 52.70978 | -61.86149 | 37188 ft | 521 kts | 39° |
| 2026-05-01 10:21 | 52.79480 | -61.74967 | 37192 ft | 521 kts | 39° |
| 2026-05-01 10:22 | 52.87971 | -61.63741 | 37194 ft | 521 kts | 40° |
| 2026-05-01 10:23 | 52.96431 | -61.52498 | 37195 ft | 522 kts | 40° |
| 2026-05-01 10:23 | 53.04923 | -61.41153 | 37197 ft | 523 kts | 40° |
| 2026-05-01 10:24 | 53.16247 | -61.25933 | 37211 ft | 523 kts | 40° |
| 2026-05-01 10:25 | 53.27564 | -61.10615 | 37194 ft | 524 kts | 40° |
| 2026-05-01 10:26 | 53.33215 | -61.02926 | 37216 ft | 524 kts | 40° |
| 2026-05-01 10:27 | 53.44506 | -60.87482 | 37209 ft | 524 kts | 41° |
| 2026-05-01 10:28 | 53.52950 | -60.75860 | 37209 ft | 524 kts | 41° |
| 2026-05-01 10:28 | 53.61390 | -60.64181 | 37211 ft | 524 kts | 41° |
| 2026-05-01 10:29 | 53.69814 | -60.52462 | 37194 ft | 524 kts | 41° |
| 2026-05-01 10:30 | 53.80998 | -60.36806 | 37215 ft | 524 kts | 41° |
| 2026-05-01 10:31 | 53.92250 | -60.20941 | 37202 ft | 525 kts | 42° |
| 2026-05-01 10:32 | 53.99714 | -60.10353 | 37209 ft | 525 kts | 42° |
| 2026-05-01 10:33 | 54.10900 | -59.94389 | 37202 ft | 526 kts | 42° |
| 2026-05-01 10:34 | 54.19304 | -59.82318 | 37209 ft | 527 kts | 42° |
| 2026-05-01 10:34 | 54.24895 | -59.74251 | 37210 ft | 527 kts | 42° |
| 2026-05-01 10:35 | 54.33292 | -59.62080 | 37204 ft | 527 kts | 42° |
| 2026-05-01 10:35 | 54.38886 | -59.53934 | 37209 ft | 528 kts | 43° |
| 2026-05-01 10:36 | 54.47235 | -59.41719 | 37204 ft | 528 kts | 43° |
| 2026-05-01 10:37 | 54.52820 | -59.33511 | 37188 ft | 528 kts | 43° |
| 2026-05-01 10:37 | 54.61185 | -59.21158 | 37193 ft | 528 kts | 43° |
| 2026-05-01 10:38 | 54.66752 | -59.12898 | 37190 ft | 528 kts | 43° |
| 2026-05-01 10:38 | 54.72324 | -59.04601 | 37190 ft | 528 kts | 43° |
| 2026-05-01 10:39 | 54.77884 | -58.96288 | 37186 ft | 528 kts | 43° |
| 2026-05-01 10:39 | 54.83433 | -58.87962 | 37182 ft | 528 kts | 43° |
| 2026-05-01 10:40 | 54.88984 | -58.79603 | 37183 ft | 528 kts | 43° |
| 2026-05-01 10:40 | 54.94524 | -58.71227 | 37172 ft | 528 kts | 43° |
| 2026-05-01 10:41 | 55.00066 | -58.62816 | 37177 ft | 528 kts | 43° |
| 2026-05-01 10:42 | 55.08361 | -58.50167 | 37181 ft | 528 kts | 44° |
| 2026-05-01 10:42 | 55.13892 | -58.41694 | 37175 ft | 529 kts | 44° |
| 2026-05-01 10:43 | 55.19418 | -58.33194 | 37179 ft | 529 kts | 44° |
| 2026-05-01 10:43 | 55.24906 | -58.24721 | 37170 ft | 530 kts | 44° |
| 2026-05-01 10:44 | 55.30424 | -58.16168 | 37170 ft | 530 kts | 44° |
| 2026-05-01 10:44 | 55.35942 | -58.07582 | 37173 ft | 530 kts | 44° |
| 2026-05-01 10:45 | 55.41463 | -57.98958 | 37191 ft | 531 kts | 44° |
| 2026-05-01 10:45 | 55.46977 | -57.90312 | 37189 ft | 531 kts | 44° |
| 2026-05-01 10:46 | 55.52490 | -57.81633 | 37175 ft | 531 kts | 44° |
| 2026-05-01 10:46 | 55.57996 | -57.72932 | 37172 ft | 532 kts | 44° |
| 2026-05-01 10:47 | 55.63504 | -57.64192 | 37193 ft | 532 kts | 44° |
| 2026-05-01 10:47 | 55.69006 | -57.55428 | 37195 ft | 532 kts | 44° |
| 2026-05-01 10:48 | 55.74514 | -57.46619 | 37173 ft | 533 kts | 44° |
| 2026-05-01 10:48 | 55.80004 | -57.37802 | 37190 ft | 533 kts | 44° |
| 2026-05-01 10:49 | 55.85501 | -57.28943 | 37197 ft | 533 kts | 44° |
| 2026-05-01 10:49 | 55.90988 | -57.20062 | 37197 ft | 533 kts | 44° |
| 2026-05-01 10:50 | 55.96425 | -57.11227 | 37185 ft | 532 kts | 44° |
| 2026-05-01 10:50 | 56.01736 | -57.02069 | 37184 ft | 529 kts | 52° |
| 2026-05-01 10:50 | 56.03709 | -56.96587 | 37197 ft | 522 kts | 70° |
| 2026-05-01 10:51 | 56.04777 | -56.90472 | 37204 ft | 512 kts | 79° |
| 2026-05-01 10:51 | 56.06820 | -56.78301 | 37211 ft | 518 kts | 71° |
| 2026-05-01 10:52 | 56.09966 | -56.66623 | 37213 ft | 523 kts | 63° |
| 2026-05-01 10:52 | 56.13648 | -56.55328 | 37216 ft | 526 kts | 61° |
| 2026-05-01 10:53 | 56.17397 | -56.44038 | 37213 ft | 527 kts | 62° |
| 2026-05-01 10:53 | 56.21073 | -56.32652 | 37224 ft | 528 kts | 62° |
| 2026-05-01 10:54 | 56.24701 | -56.21172 | 37218 ft | 528 kts | 63° |
| 2026-05-01 10:54 | 56.28277 | -56.09761 | 37226 ft | 528 kts | 63° |
| 2026-05-01 10:55 | 56.31878 | -55.98226 | 37220 ft | 528 kts | 63° |
| 2026-05-01 10:55 | 56.35471 | -55.86682 | 37216 ft | 528 kts | 63° |
| 2026-05-01 10:56 | 56.39051 | -55.75128 | 37228 ft | 527 kts | 63° |
| 2026-05-01 10:56 | 56.42610 | -55.63584 | 37237 ft | 526 kts | 63° |
| 2026-05-01 10:57 | 56.46154 | -55.52026 | 37232 ft | 526 kts | 63° |
| 2026-05-01 10:57 | 56.49688 | -55.40447 | 37237 ft | 526 kts | 63° |
| 2026-05-01 10:58 | 56.53194 | -55.28907 | 37251 ft | 526 kts | 63° |
| 2026-05-01 10:58 | 56.56710 | -55.17273 | 37250 ft | 527 kts | 63° |
| 2026-05-01 10:59 | 56.60219 | -55.05605 | 37253 ft | 527 kts | 63° |
| 2026-05-01 10:59 | 56.63722 | -54.93901 | 37253 ft | 527 kts | 63° |
| 2026-05-01 11:00 | 56.67210 | -54.82188 | 37257 ft | 527 kts | 63° |
| 2026-05-01 11:00 | 56.70690 | -54.70440 | 37262 ft | 527 kts | 63° |
| 2026-05-01 11:01 | 56.74104 | -54.58858 | 37242 ft | 527 kts | 63° |
| 2026-05-01 11:01 | 56.77547 | -54.47120 | 37255 ft | 526 kts | 63° |
| 2026-05-01 11:02 | 56.80989 | -54.35326 | 37264 ft | 526 kts | 63° |
| 2026-05-01 11:02 | 56.84420 | -54.23513 | 37270 ft | 526 kts | 63° |
| 2026-05-01 11:03 | 56.87835 | -54.11692 | 37272 ft | 526 kts | 63° |
| 2026-05-01 11:03 | 56.91241 | -53.99840 | 37275 ft | 527 kts | 64° |
| 2026-05-01 11:04 | 56.94642 | -53.87948 | 37271 ft | 527 kts | 63° |
| 2026-05-01 11:04 | 56.98001 | -53.76140 | 37281 ft | 528 kts | 63° |
| 2026-05-01 11:05 | 57.01391 | -53.64163 | 37280 ft | 528 kts | 64° |
| 2026-05-01 11:05 | 57.04744 | -53.52255 | 37284 ft | 529 kts | 64° |
| 2026-05-01 11:06 | 57.08133 | -53.40156 | 37285 ft | 529 kts | 64° |
| 2026-05-01 11:06 | 57.11490 | -53.28109 | 37286 ft | 529 kts | 64° |
| 2026-05-01 11:07 | 57.16478 | -53.10089 | 37294 ft | 528 kts | 64° |
| 2026-05-01 11:07 | 57.19797 | -52.98022 | 37294 ft | 528 kts | 64° |
| 2026-05-01 11:08 | 57.23100 | -52.85945 | 37298 ft | 527 kts | 64° |
| 2026-05-01 11:09 | 57.28041 | -52.67763 | 37300 ft | 528 kts | 64° |
| 2026-05-01 11:09 | 57.31325 | -52.55594 | 37302 ft | 529 kts | 64° |
| 2026-05-01 11:10 | 57.36236 | -52.37276 | 37302 ft | 530 kts | 64° |
| 2026-05-01 11:10 | 57.39499 | -52.25025 | 37309 ft | 530 kts | 64° |
| 2026-05-01 11:11 | 57.42752 | -52.12743 | 37311 ft | 531 kts | 64° |
| 2026-05-01 11:11 | 57.46001 | -52.00408 | 37309 ft | 532 kts | 64° |
| 2026-05-01 11:12 | 57.49235 | -51.88066 | 37286 ft | 532 kts | 64° |
| 2026-05-01 11:12 | 57.52458 | -51.75693 | 37324 ft | 531 kts | 64° |
| 2026-05-01 11:13 | 57.55642 | -51.63404 | 37316 ft | 531 kts | 64° |
| 2026-05-01 11:13 | 57.58843 | -51.50982 | 37314 ft | 531 kts | 64° |
| 2026-05-01 11:14 | 57.62028 | -51.38552 | 37318 ft | 531 kts | 64° |
| 2026-05-01 11:14 | 57.65198 | -51.26112 | 37319 ft | 531 kts | 64° |
| 2026-05-01 11:15 | 57.68361 | -51.13629 | 37324 ft | 531 kts | 64° |
| 2026-05-01 11:15 | 57.71513 | -51.01119 | 37318 ft | 531 kts | 64° |
| 2026-05-01 11:16 | 57.74648 | -50.88607 | 37325 ft | 531 kts | 64° |
| 2026-05-01 11:16 | 57.77771 | -50.76070 | 37323 ft | 531 kts | 65° |
| 2026-05-01 11:17 | 57.80882 | -50.63511 | 37326 ft | 531 kts | 65° |
| 2026-05-01 11:17 | 57.83981 | -50.50929 | 37323 ft | 531 kts | 65° |
| 2026-05-01 11:18 | 57.87063 | -50.38342 | 37317 ft | 530 kts | 65° |
| 2026-05-01 11:18 | 57.90133 | -50.25732 | 37326 ft | 530 kts | 65° |
| 2026-05-01 11:19 | 57.93186 | -50.13119 | 37330 ft | 530 kts | 65° |
| 2026-05-01 11:19 | 57.96216 | -50.00459 | 37342 ft | 530 kts | 67° |
| 2026-05-01 11:20 | 57.98491 | -49.87271 | 37330 ft | 530 kts | 75° |
| 2026-05-01 11:20 | 58.00325 | -49.73793 | 37325 ft | 530 kts | 76° |
| 2026-05-01 11:21 | 58.02149 | -49.60326 | 37326 ft | 530 kts | 76° |
| 2026-05-01 11:21 | 58.03999 | -49.46858 | 37328 ft | 530 kts | 75° |
| 2026-05-01 11:22 | 58.05856 | -49.33377 | 37327 ft | 530 kts | 75° |
| 2026-05-01 11:22 | 58.07388 | -49.22175 | 37329 ft | 530 kts | 76° |
| 2026-05-01 11:23 | 58.09514 | -49.06472 | 37328 ft | 530 kts | 76° |
| 2026-05-01 11:23 | 58.11322 | -48.92968 | 37331 ft | 530 kts | 76° |
| 2026-05-01 11:24 | 58.12828 | -48.81625 | 37330 ft | 530 kts | 76° |
| 2026-05-01 11:25 | 58.15498 | -48.61312 | 37333 ft | 530 kts | 76° |
| 2026-05-01 11:25 | 58.18137 | -48.40955 | 37332 ft | 530 kts | 76° |
| 2026-05-01 11:26 | 58.20731 | -48.20667 | 37331 ft | 530 kts | 76° |
| 2026-05-01 11:27 | 58.22449 | -48.07076 | 37330 ft | 530 kts | 76° |
| 2026-05-01 11:27 | 58.24152 | -47.93469 | 37342 ft | 530 kts | 76° |
| 2026-05-01 11:28 | 58.25844 | -47.79830 | 37330 ft | 531 kts | 76° |
| 2026-05-01 11:28 | 58.27520 | -47.66179 | 37334 ft | 531 kts | 77° |
| 2026-05-01 11:29 | 58.30011 | -47.45658 | 37331 ft | 531 kts | 77° |
| 2026-05-01 11:30 | 58.32466 | -47.25125 | 37344 ft | 531 kts | 77° |
| 2026-05-01 11:30 | 58.34084 | -47.11431 | 37333 ft | 532 kts | 77° |
| 2026-05-01 11:31 | 58.35692 | -46.97682 | 37321 ft | 532 kts | 77° |
| 2026-05-01 11:31 | 58.37285 | -46.83922 | 37331 ft | 532 kts | 77° |
| 2026-05-01 11:32 | 58.38864 | -46.70137 | 37328 ft | 532 kts | 77° |
| 2026-05-01 11:32 | 58.40428 | -46.56341 | 37348 ft | 532 kts | 77° |
| 2026-05-01 11:33 | 58.41969 | -46.42612 | 37334 ft | 533 kts | 77° |
| 2026-05-01 11:33 | 58.43502 | -46.28809 | 37331 ft | 534 kts | 77° |
| 2026-05-01 11:34 | 58.45028 | -46.14927 | 37332 ft | 534 kts | 77° |
| 2026-05-01 11:34 | 58.46538 | -46.01035 | 37323 ft | 535 kts | 78° |
| 2026-05-01 11:35 | 58.48034 | -45.87126 | 37313 ft | 534 kts | 78° |
| 2026-05-01 11:35 | 58.49515 | -45.73202 | 37324 ft | 535 kts | 78° |
| 2026-05-01 11:36 | 58.50985 | -45.59231 | 37324 ft | 536 kts | 78° |
| 2026-05-01 11:36 | 58.52440 | -45.45243 | 37325 ft | 536 kts | 78° |
| 2026-05-01 11:37 | 58.53880 | -45.31244 | 37320 ft | 537 kts | 78° |
| 2026-05-01 11:37 | 58.55306 | -45.17216 | 37322 ft | 536 kts | 78° |
| 2026-05-01 11:38 | 58.56716 | -45.03180 | 37324 ft | 537 kts | 78° |
| 2026-05-01 11:38 | 58.58115 | -44.89108 | 37321 ft | 538 kts | 78° |
| 2026-05-01 11:39 | 58.59499 | -44.75005 | 37304 ft | 538 kts | 78° |
| 2026-05-01 11:39 | 58.60869 | -44.60877 | 37311 ft | 538 kts | 78° |
| 2026-05-01 11:40 | 58.62222 | -44.46757 | 37318 ft | 538 kts | 79° |
| 2026-05-01 11:40 | 58.63560 | -44.32622 | 37319 ft | 539 kts | 78° |
| 2026-05-01 11:41 | 58.64886 | -44.18435 | 37313 ft | 540 kts | 79° |
| 2026-05-01 11:41 | 58.66199 | -44.04220 | 37309 ft | 541 kts | 79° |
| 2026-05-01 11:42 | 58.67495 | -43.89993 | 37308 ft | 541 kts | 79° |
| 2026-05-01 11:42 | 58.68775 | -43.75765 | 37302 ft | 541 kts | 79° |
| 2026-05-01 11:43 | 58.70041 | -43.61502 | 37306 ft | 542 kts | 79° |
| 2026-05-01 11:43 | 58.71297 | -43.47182 | 37305 ft | 543 kts | 79° |
| 2026-05-01 11:44 | 58.73151 | -43.25656 | 37304 ft | 545 kts | 79° |
| 2026-05-01 11:44 | 58.74371 | -43.11253 | 37297 ft | 545 kts | 79° |
| 2026-05-01 11:45 | 58.75574 | -42.96846 | 37297 ft | 545 kts | 79° |
| 2026-05-01 11:45 | 58.76764 | -42.82398 | 37298 ft | 547 kts | 79° |
| 2026-05-01 11:46 | 58.77939 | -42.67921 | 37299 ft | 548 kts | 79° |
| 2026-05-01 11:46 | 58.79102 | -42.53383 | 37284 ft | 549 kts | 79° |
| 2026-05-01 11:47 | 58.80248 | -42.38842 | 37275 ft | 548 kts | 80° |
| 2026-05-01 11:47 | 58.81370 | -42.24388 | 37281 ft | 548 kts | 80° |
| 2026-05-01 11:48 | 58.82482 | -42.09854 | 37284 ft | 548 kts | 80° |
| 2026-05-01 11:48 | 58.83577 | -41.95307 | 37274 ft | 547 kts | 80° |
| 2026-05-01 11:49 | 58.84654 | -41.80779 | 37275 ft | 547 kts | 81° |
| 2026-05-01 11:49 | 58.85717 | -41.66217 | 37279 ft | 547 kts | 81° |
| 2026-05-01 11:50 | 58.86762 | -41.51653 | 37280 ft | 547 kts | 81° |
| 2026-05-01 11:50 | 58.87790 | -41.37095 | 37276 ft | 547 kts | 81° |
| 2026-05-01 11:51 | 58.88803 | -41.22516 | 37265 ft | 547 kts | 81° |
| 2026-05-01 11:51 | 58.89799 | -41.07931 | 37266 ft | 547 kts | 81° |
| 2026-05-01 11:52 | 58.90778 | -40.93354 | 37263 ft | 547 kts | 81° |
| 2026-05-01 11:52 | 58.91740 | -40.78766 | 37265 ft | 547 kts | 81° |
| 2026-05-01 11:53 | 58.92687 | -40.64164 | 37273 ft | 547 kts | 81° |
| 2026-05-01 11:53 | 58.93618 | -40.49541 | 37253 ft | 547 kts | 81° |
| 2026-05-01 11:54 | 58.94531 | -40.34915 | 37263 ft | 547 kts | 82° |
| 2026-05-01 11:54 | 58.95430 | -40.20264 | 37255 ft | 547 kts | 82° |
| 2026-05-01 11:55 | 58.96312 | -40.05629 | 37245 ft | 547 kts | 82° |
| 2026-05-01 11:55 | 58.97114 | -39.90944 | 37256 ft | 549 kts | 84° |
| 2026-05-01 11:56 | 58.97645 | -39.76186 | 37249 ft | 549 kts | 85° |
| 2026-05-01 11:56 | 58.98111 | -39.61410 | 37248 ft | 550 kts | 85° |
| 2026-05-01 11:57 | 58.98516 | -39.49126 | 37245 ft | 550 kts | 85° |
| 2026-05-01 11:57 | 58.99102 | -39.31815 | 37246 ft | 550 kts | 85° |
| 2026-05-01 11:58 | 58.99592 | -39.17026 | 37265 ft | 550 kts | 85° |
| 2026-05-01 11:59 | 59.00293 | -38.94772 | 37232 ft | 551 kts | 85° |
| 2026-05-01 11:59 | 59.00736 | -38.79937 | 37241 ft | 551 kts | 85° |
| 2026-05-01 12:00 | 59.01368 | -38.57688 | 37238 ft | 551 kts | 85° |
| 2026-05-01 12:01 | 59.01961 | -38.35511 | 37241 ft | 552 kts | 86° |
| 2026-05-01 12:01 | 59.02337 | -38.20636 | 37235 ft | 552 kts | 86° |
| 2026-05-01 12:02 | 59.02697 | -38.05723 | 37240 ft | 553 kts | 86° |
| 2026-05-01 12:02 | 59.03039 | -37.90824 | 37242 ft | 553 kts | 86° |
| 2026-05-01 12:03 | 59.03365 | -37.75911 | 37240 ft | 553 kts | 86° |
| 2026-05-01 12:03 | 59.03673 | -37.61039 | 37257 ft | 553 kts | 86° |
| 2026-05-01 12:04 | 59.03964 | -37.46120 | 37242 ft | 554 kts | 86° |
| 2026-05-01 12:04 | 59.04239 | -37.31162 | 37239 ft | 554 kts | 86° |
| 2026-05-01 12:05 | 59.04497 | -37.16217 | 37245 ft | 554 kts | 87° |
| 2026-05-01 12:05 | 59.04851 | -36.93787 | 37244 ft | 554 kts | 87° |
| 2026-05-01 12:06 | 59.05065 | -36.78829 | 37226 ft | 554 kts | 87° |
| 2026-05-01 12:06 | 59.05262 | -36.63875 | 37244 ft | 554 kts | 87° |
| 2026-05-01 12:07 | 59.05443 | -36.48916 | 37238 ft | 554 kts | 87° |
| 2026-05-01 12:07 | 59.05605 | -36.33966 | 37248 ft | 554 kts | 88° |
| 2026-05-01 12:08 | 59.05751 | -36.19012 | 37243 ft | 554 kts | 88° |
| 2026-05-01 12:08 | 59.05879 | -36.04054 | 37250 ft | 554 kts | 88° |
| 2026-05-01 12:09 | 59.05991 | -35.89067 | 37245 ft | 555 kts | 88° |
| 2026-05-01 12:09 | 59.06084 | -35.74178 | 37249 ft | 555 kts | 88° |
| 2026-05-01 12:10 | 59.06193 | -35.51727 | 37235 ft | 553 kts | 88° |
| 2026-05-01 12:11 | 59.06263 | -35.29307 | 37270 ft | 554 kts | 88° |
| 2026-05-01 12:11 | 59.06285 | -35.16843 | 37243 ft | 554 kts | 88° |
| 2026-05-01 12:12 | 59.06296 | -35.01854 | 37245 ft | 555 kts | 89° |
| 2026-05-01 12:12 | 59.06289 | -34.86868 | 37245 ft | 555 kts | 89° |
| 2026-05-01 12:13 | 59.06265 | -34.71880 | 37243 ft | 555 kts | 89° |
| 2026-05-01 12:13 | 59.06224 | -34.56880 | 37219 ft | 555 kts | 89° |
| 2026-05-01 12:14 | 59.06166 | -34.41903 | 37236 ft | 554 kts | 89° |
| 2026-05-01 12:14 | 59.06090 | -34.26935 | 37235 ft | 554 kts | 89° |
| 2026-05-01 12:15 | 59.05998 | -34.11975 | 37244 ft | 554 kts | 89° |
| 2026-05-01 12:15 | 59.05888 | -33.97013 | 37241 ft | 554 kts | 89° |
| 2026-05-01 12:16 | 59.05760 | -33.82060 | 37240 ft | 554 kts | 90° |
| 2026-05-01 12:16 | 59.05616 | -33.67082 | 37237 ft | 555 kts | 90° |
| 2026-05-01 12:17 | 59.05454 | -33.52098 | 37232 ft | 555 kts | 90° |
| 2026-05-01 12:17 | 59.05275 | -33.37117 | 37223 ft | 554 kts | 90° |
| 2026-05-01 12:18 | 59.05080 | -33.22263 | 37238 ft | 554 kts | 90° |
| 2026-05-01 12:18 | 59.04867 | -33.07315 | 37234 ft | 554 kts | 90° |
| 2026-05-01 12:19 | 59.04636 | -32.92355 | 37251 ft | 554 kts | 90° |
| 2026-05-01 12:19 | 59.04388 | -32.77390 | 37239 ft | 554 kts | 90° |
| 2026-05-01 12:20 | 59.04123 | -32.62421 | 37235 ft | 554 kts | 90° |
| 2026-05-01 12:20 | 59.03840 | -32.47472 | 37229 ft | 554 kts | 91° |
| 2026-05-01 12:21 | 59.03541 | -32.32528 | 37214 ft | 554 kts | 91° |
| 2026-05-01 12:21 | 59.03225 | -32.17600 | 37252 ft | 553 kts | 91° |
| 2026-05-01 12:22 | 59.02892 | -32.02687 | 37226 ft | 553 kts | 91° |
| 2026-05-01 12:22 | 59.02541 | -31.87767 | 37232 ft | 553 kts | 91° |
| 2026-05-01 12:23 | 59.02173 | -31.72851 | 37223 ft | 553 kts | 91° |
| 2026-05-01 12:23 | 59.01789 | -31.57956 | 37236 ft | 553 kts | 91° |
| 2026-05-01 12:24 | 59.01387 | -31.43051 | 37263 ft | 553 kts | 91° |
| 2026-05-01 12:24 | 59.00973 | -31.28306 | 37226 ft | 553 kts | 91° |
| 2026-05-01 12:25 | 59.00314 | -31.05999 | 37228 ft | 552 kts | 92° |
| 2026-05-01 12:26 | 58.99851 | -30.91045 | 37235 ft | 552 kts | 92° |
| 2026-05-01 12:26 | 58.99132 | -30.68877 | 37222 ft | 551 kts | 92° |
| 2026-05-01 12:27 | 58.98372 | -30.46610 | 37229 ft | 551 kts | 92° |
| 2026-05-01 12:28 | 58.97576 | -30.24423 | 37226 ft | 551 kts | 92° |
| 2026-05-01 12:29 | 58.96744 | -30.02219 | 37217 ft | 550 kts | 92° |
| 2026-05-01 12:29 | 58.95553 | -29.80073 | 37225 ft | 551 kts | 96° |
| 2026-05-01 12:30 | 58.94096 | -29.58013 | 37228 ft | 551 kts | 96° |
| 2026-05-01 12:31 | 58.93150 | -29.43299 | 37231 ft | 550 kts | 96° |
| 2026-05-01 12:31 | 58.92209 | -29.28589 | 37226 ft | 551 kts | 96° |
| 2026-05-01 12:32 | 58.91255 | -29.13900 | 37229 ft | 551 kts | 96° |
| 2026-05-01 12:32 | 58.89784 | -28.91878 | 37223 ft | 550 kts | 96° |
| 2026-05-01 12:33 | 58.88782 | -28.77206 | 37222 ft | 549 kts | 96° |
| 2026-05-01 12:33 | 58.87765 | -28.62584 | 37223 ft | 549 kts | 96° |
| 2026-05-01 12:34 | 58.86731 | -28.47950 | 37229 ft | 549 kts | 96° |
| 2026-05-01 12:34 | 58.85681 | -28.33331 | 37223 ft | 549 kts | 97° |
| 2026-05-01 12:35 | 58.84623 | -28.18825 | 37222 ft | 550 kts | 97° |
| 2026-05-01 12:35 | 58.83539 | -28.04215 | 37199 ft | 549 kts | 97° |
| 2026-05-01 12:36 | 58.82442 | -27.89650 | 37223 ft | 548 kts | 97° |
| 2026-05-01 12:36 | 58.81330 | -27.75130 | 37221 ft | 548 kts | 97° |
| 2026-05-01 12:37 | 58.80201 | -27.60584 | 37220 ft | 548 kts | 97° |
| 2026-05-01 12:37 | 58.79056 | -27.46070 | 37225 ft | 548 kts | 97° |
| 2026-05-01 12:38 | 58.77895 | -27.31560 | 37216 ft | 548 kts | 97° |
| 2026-05-01 12:38 | 58.76717 | -27.17054 | 37215 ft | 548 kts | 98° |
| 2026-05-01 12:39 | 58.75523 | -27.02563 | 37217 ft | 548 kts | 98° |
| 2026-05-01 12:39 | 58.74313 | -26.88089 | 37218 ft | 548 kts | 98° |
| 2026-05-01 12:40 | 58.73088 | -26.73624 | 37215 ft | 548 kts | 98° |
| 2026-05-01 12:40 | 58.71844 | -26.59151 | 37212 ft | 548 kts | 98° |
| 2026-05-01 12:41 | 58.70593 | -26.44794 | 37212 ft | 548 kts | 98° |
| 2026-05-01 12:41 | 58.69319 | -26.30357 | 37213 ft | 548 kts | 98° |
| 2026-05-01 12:42 | 58.68027 | -26.15922 | 37214 ft | 548 kts | 98° |
| 2026-05-01 12:42 | 58.66719 | -26.01489 | 37206 ft | 547 kts | 99° |
| 2026-05-01 12:43 | 58.65398 | -25.87107 | 37213 ft | 547 kts | 99° |
| 2026-05-01 12:43 | 58.64060 | -25.72726 | 37207 ft | 546 kts | 99° |
| 2026-05-01 12:44 | 58.62709 | -25.58388 | 37210 ft | 546 kts | 99° |
| 2026-05-01 12:45 | 58.59961 | -25.29759 | 37207 ft | 546 kts | 99° |
| 2026-05-01 12:45 | 58.58564 | -25.15468 | 37221 ft | 546 kts | 99° |
| 2026-05-01 12:46 | 58.57150 | -25.01183 | 37194 ft | 545 kts | 99° |
| 2026-05-01 12:46 | 58.55722 | -24.86924 | 37204 ft | 544 kts | 100° |
| 2026-05-01 12:47 | 58.54281 | -24.72709 | 37201 ft | 544 kts | 100° |
| 2026-05-01 12:47 | 58.52825 | -24.58501 | 37201 ft | 544 kts | 100° |
| 2026-05-01 12:48 | 58.51352 | -24.44302 | 37204 ft | 544 kts | 100° |
| 2026-05-01 12:48 | 58.49864 | -24.30120 | 37204 ft | 544 kts | 101° |
| 2026-05-01 12:49 | 58.48363 | -24.15965 | 37197 ft | 544 kts | 101° |
| 2026-05-01 12:49 | 58.46854 | -24.01908 | 37186 ft | 543 kts | 101° |
| 2026-05-01 12:50 | 58.45322 | -23.87781 | 37264 ft | 544 kts | 101° |
| 2026-05-01 12:50 | 58.44551 | -23.80733 | 37440 ft | 542 kts | 101° |
| 2026-05-01 12:50 | 58.43777 | -23.73694 | 37656 ft | 540 kts | 101° |
| 2026-05-01 12:51 | 58.43001 | -23.66677 | 37851 ft | 539 kts | 101° |
| 2026-05-01 12:51 | 58.42223 | -23.59676 | 37991 ft | 539 kts | 101° |
| 2026-05-01 12:51 | 58.40656 | -23.45690 | 38222 ft | 539 kts | 102° |
| 2026-05-01 12:52 | 58.39867 | -23.38704 | 38387 ft | 539 kts | 102° |
| 2026-05-01 12:52 | 58.38279 | -23.24759 | 38639 ft | 538 kts | 102° |
| 2026-05-01 12:52 | 58.37481 | -23.17799 | 38759 ft | 538 kts | 102° |
| 2026-05-01 12:53 | 58.35875 | -23.03913 | 38971 ft | 536 kts | 102° |
| 2026-05-01 12:53 | 58.35069 | -22.96991 | 39076 ft | 535 kts | 102° |
| 2026-05-01 12:54 | 58.33449 | -22.83192 | 39176 ft | 534 kts | 102° |
| 2026-05-01 12:54 | 58.30988 | -22.62488 | 39183 ft | 535 kts | 102° |
| 2026-05-01 12:55 | 58.28488 | -22.41771 | 39182 ft | 537 kts | 103° |
| 2026-05-01 12:56 | 58.26799 | -22.27937 | 39179 ft | 537 kts | 103° |
| 2026-05-01 12:56 | 58.25107 | -22.14219 | 39195 ft | 537 kts | 103° |
| 2026-05-01 12:57 | 58.23387 | -22.00411 | 39175 ft | 537 kts | 103° |
| 2026-05-01 12:57 | 58.20784 | -21.79761 | 39172 ft | 536 kts | 103° |
| 2026-05-01 12:58 | 58.19033 | -21.66032 | 39170 ft | 535 kts | 103° |
| 2026-05-01 12:59 | 58.16382 | -21.45487 | 39171 ft | 535 kts | 103° |
| 2026-05-01 12:59 | 58.13701 | -21.24991 | 39173 ft | 534 kts | 104° |
| 2026-05-01 13:00 | 58.10990 | -21.04555 | 39156 ft | 533 kts | 104° |
| 2026-05-01 13:01 | 58.08255 | -20.84203 | 39170 ft | 532 kts | 104° |
| 2026-05-01 13:02 | 58.05808 | -20.66229 | 39170 ft | 532 kts | 104° |
| 2026-05-01 13:07 | 57.82273 | -19.20713 | 39144 ft | 525 kts | 109° |
| 2026-05-01 13:08 | 57.79897 | -19.07770 | 39156 ft | 525 kts | 109° |
| 2026-05-01 13:08 | 57.77508 | -18.94857 | 39151 ft | 525 kts | 109° |
| 2026-05-01 13:09 | 57.75104 | -18.81946 | 39150 ft | 525 kts | 109° |
| 2026-05-01 13:09 | 57.72689 | -18.69062 | 39154 ft | 525 kts | 109° |
| 2026-05-01 13:10 | 57.70259 | -18.56188 | 39153 ft | 525 kts | 109° |
| 2026-05-01 13:10 | 57.67815 | -18.43323 | 39157 ft | 525 kts | 110° |
| 2026-05-01 13:11 | 57.65384 | -18.30607 | 39151 ft | 522 kts | 110° |
| 2026-05-01 13:11 | 57.62932 | -18.17875 | 39151 ft | 520 kts | 110° |
| 2026-05-01 13:12 | 57.60478 | -18.05213 | 39150 ft | 519 kts | 110° |
| 2026-05-01 13:12 | 57.58028 | -17.92651 | 39148 ft | 518 kts | 110° |
| 2026-05-01 13:13 | 57.55554 | -17.80047 | 39143 ft | 517 kts | 110° |
| 2026-05-01 13:13 | 57.53120 | -17.67723 | 39147 ft | 518 kts | 111° |
| 2026-05-01 13:14 | 57.50622 | -17.55162 | 39147 ft | 517 kts | 111° |
| 2026-05-01 13:14 | 57.48113 | -17.42621 | 39142 ft | 517 kts | 111° |
| 2026-05-01 13:15 | 57.45593 | -17.30102 | 39143 ft | 517 kts | 111° |
| 2026-05-01 13:15 | 57.43060 | -17.17599 | 39141 ft | 517 kts | 111° |
| 2026-05-01 13:16 | 57.40512 | -17.05103 | 39141 ft | 518 kts | 111° |
| 2026-05-01 13:16 | 57.37955 | -16.92634 | 39146 ft | 518 kts | 112° |
| 2026-05-01 13:17 | 57.32803 | -16.67755 | 39132 ft | 517 kts | 112° |
| 2026-05-01 13:18 | 57.28913 | -16.49167 | 39142 ft | 516 kts | 112° |
| 2026-05-01 13:18 | 57.26302 | -16.36786 | 39141 ft | 516 kts | 112° |
| 2026-05-01 13:19 | 57.23683 | -16.24445 | 39139 ft | 516 kts | 112° |
| 2026-05-01 13:20 | 57.19732 | -16.05960 | 39135 ft | 516 kts | 112° |
| 2026-05-01 13:20 | 57.17080 | -15.93650 | 39133 ft | 516 kts | 112° |
| 2026-05-01 13:21 | 57.13088 | -15.75250 | 39138 ft | 516 kts | 112° |
| 2026-05-01 13:21 | 57.10412 | -15.63010 | 39136 ft | 515 kts | 113° |
| 2026-05-01 13:22 | 57.07726 | -15.50792 | 39137 ft | 515 kts | 113° |
| 2026-05-01 13:22 | 57.05051 | -15.38698 | 39144 ft | 514 kts | 113° |
| 2026-05-01 13:23 | 57.02348 | -15.26542 | 39135 ft | 513 kts | 113° |
| 2026-05-01 13:23 | 56.99640 | -15.14426 | 39138 ft | 513 kts | 113° |
| 2026-05-01 13:24 | 56.97249 | -15.02140 | 39135 ft | 512 kts | 105° |
| 2026-05-01 13:25 | 56.95744 | -14.82800 | 39148 ft | 512 kts | 95° |
| 2026-05-01 13:25 | 56.95192 | -14.69799 | 39132 ft | 511 kts | 95° |
| 2026-05-01 13:26 | 56.94587 | -14.56835 | 39137 ft | 511 kts | 96° |
| 2026-05-01 13:26 | 56.93941 | -14.43877 | 39136 ft | 511 kts | 96° |
| 2026-05-01 13:27 | 56.93278 | -14.30918 | 39149 ft | 511 kts | 96° |
| 2026-05-01 13:27 | 56.94190 | -14.11846 | 39126 ft | 510 kts | 72° |
| 2026-05-01 13:28 | 56.95253 | -13.99108 | 39140 ft | 508 kts | 94° |
| 2026-05-01 13:28 | 56.94697 | -13.92826 | 39151 ft | 505 kts | 108° |
| 2026-05-01 13:29 | 56.90166 | -13.68348 | 39126 ft | 508 kts | 109° |
| 2026-05-01 13:31 | 56.84311 | -13.31377 | 39133 ft | 502 kts | 107° |
| 2026-05-01 13:32 | 56.79447 | -13.00948 | 39131 ft | 499 kts | 108° |
| 2026-05-01 13:33 | 56.74508 | -12.70657 | 39123 ft | 499 kts | 108° |
| 2026-05-01 13:34 | 56.70498 | -12.46428 | 39118 ft | 500 kts | 108° |
| 2026-05-01 13:35 | 56.67457 | -12.28284 | 39114 ft | 500 kts | 109° |
| 2026-05-01 13:36 | 56.64388 | -12.10162 | 39110 ft | 500 kts | 109° |
| 2026-05-01 13:36 | 56.61293 | -11.92056 | 39106 ft | 500 kts | 109° |
| 2026-05-01 13:37 | 56.59216 | -11.80016 | 39109 ft | 500 kts | 109° |
| 2026-05-01 13:37 | 56.57125 | -11.67969 | 39110 ft | 500 kts | 109° |
| 2026-05-01 13:38 | 56.53982 | -11.50002 | 39108 ft | 498 kts | 110° |
| 2026-05-01 13:39 | 56.51875 | -11.38069 | 39090 ft | 496 kts | 110° |
| 2026-05-01 13:39 | 56.49768 | -11.26203 | 39095 ft | 495 kts | 110° |
| 2026-05-01 13:40 | 56.47664 | -11.14442 | 39091 ft | 494 kts | 110° |
| 2026-05-01 13:40 | 56.45542 | -11.02646 | 39090 ft | 493 kts | 110° |
| 2026-05-01 13:41 | 56.43409 | -10.90868 | 39085 ft | 493 kts | 110° |
| 2026-05-01 13:41 | 56.41254 | -10.79040 | 39081 ft | 492 kts | 110° |
| 2026-05-01 13:42 | 56.39117 | -10.67391 | 39081 ft | 492 kts | 110° |
| 2026-05-01 13:42 | 56.36958 | -10.55692 | 39074 ft | 491 kts | 110° |
| 2026-05-01 13:43 | 56.34788 | -10.44002 | 39076 ft | 491 kts | 110° |
| 2026-05-01 13:43 | 56.33157 | -10.32058 | 39070 ft | 494 kts | 100° |
| 2026-05-01 13:44 | 56.32324 | -10.19763 | 39076 ft | 495 kts | 100° |
| 2026-05-01 13:44 | 56.31302 | -10.07586 | 39066 ft | 495 kts | 102° |
| 2026-05-01 13:45 | 56.30150 | -9.95376 | 39071 ft | 496 kts | 102° |
| 2026-05-01 13:45 | 56.29123 | -9.83085 | 39069 ft | 496 kts | 101° |
| 2026-05-01 13:46 | 56.28141 | -9.70778 | 39056 ft | 497 kts | 101° |
| 2026-05-01 13:46 | 56.27133 | -9.58473 | 39068 ft | 497 kts | 101° |
| 2026-05-01 13:47 | 56.26098 | -9.46184 | 39065 ft | 497 kts | 102° |
| 2026-05-01 13:47 | 56.25045 | -9.33903 | 39057 ft | 497 kts | 102° |
| 2026-05-01 13:48 | 56.23977 | -9.21614 | 39062 ft | 497 kts | 102° |
| 2026-05-01 13:48 | 56.22908 | -9.09427 | 39060 ft | 496 kts | 102° |
| 2026-05-01 13:49 | 56.22006 | -8.99260 | 39063 ft | 495 kts | 102° |
| 2026-05-01 13:49 | 56.20913 | -8.87064 | 39064 ft | 494 kts | 102° |
| 2026-05-01 13:50 | 56.19809 | -8.74893 | 39062 ft | 493 kts | 102° |
| 2026-05-01 13:50 | 56.18696 | -8.62756 | 39064 ft | 493 kts | 103° |
| 2026-05-01 13:51 | 56.17571 | -8.50628 | 39056 ft | 492 kts | 103° |
| 2026-05-01 13:51 | 56.16435 | -8.38507 | 39062 ft | 492 kts | 103° |
| 2026-05-01 13:52 | 56.15289 | -8.26426 | 39061 ft | 492 kts | 103° |
| 2026-05-01 13:52 | 56.14130 | -8.14341 | 39066 ft | 492 kts | 103° |
| 2026-05-01 13:53 | 56.12960 | -8.02260 | 39069 ft | 492 kts | 103° |
| 2026-05-01 13:53 | 56.11181 | -7.84136 | 39063 ft | 493 kts | 104° |
| 2026-05-01 13:54 | 56.09981 | -7.72083 | 39071 ft | 494 kts | 104° |
| 2026-05-01 13:54 | 56.08762 | -7.59956 | 39067 ft | 495 kts | 104° |
| 2026-05-01 13:55 | 56.07530 | -7.47826 | 39062 ft | 495 kts | 104° |
| 2026-05-01 13:55 | 56.06288 | -7.35716 | 39053 ft | 495 kts | 104° |
| 2026-05-01 13:56 | 56.05035 | -7.23625 | 39068 ft | 494 kts | 104° |
| 2026-05-01 13:56 | 56.03782 | -7.11653 | 39072 ft | 494 kts | 104° |
| 2026-05-01 13:57 | 56.02509 | -6.99613 | 39076 ft | 494 kts | 104° |
| 2026-05-01 13:57 | 56.01222 | -6.87558 | 39076 ft | 494 kts | 104° |
| 2026-05-01 13:58 | 55.99921 | -6.75497 | 39061 ft | 494 kts | 105° |
| 2026-05-01 13:58 | 55.98607 | -6.63426 | 39077 ft | 495 kts | 105° |
| 2026-05-01 13:59 | 55.97287 | -6.51412 | 39082 ft | 496 kts | 105° |
| 2026-05-01 13:59 | 55.95946 | -6.39331 | 39085 ft | 496 kts | 105° |
| 2026-05-01 14:00 | 55.94613 | -6.27428 | 39089 ft | 497 kts | 105° |
| 2026-05-01 14:00 | 55.93247 | -6.15347 | 39092 ft | 497 kts | 105° |
| 2026-05-01 14:01 | 55.91870 | -6.03278 | 39094 ft | 497 kts | 105° |
| 2026-05-01 14:01 | 55.90483 | -5.91228 | 39093 ft | 496 kts | 105° |
| 2026-05-01 14:02 | 55.89083 | -5.79189 | 39085 ft | 496 kts | 105° |
| 2026-05-01 14:02 | 55.87674 | -5.67174 | 39089 ft | 496 kts | 106° |
| 2026-05-01 14:03 | 55.86251 | -5.55158 | 39094 ft | 496 kts | 105° |
| 2026-05-01 14:03 | 55.84819 | -5.43167 | 39100 ft | 496 kts | 105° |
| 2026-05-01 14:04 | 55.83375 | -5.31186 | 39096 ft | 496 kts | 106° |
| 2026-05-01 14:04 | 55.81916 | -5.19174 | 39096 ft | 497 kts | 106° |
| 2026-05-01 14:05 | 55.80449 | -5.07214 | 39101 ft | 497 kts | 106° |
| 2026-05-01 14:05 | 55.78965 | -4.95212 | 39089 ft | 497 kts | 106° |
| 2026-05-01 14:06 | 55.77479 | -4.83296 | 39099 ft | 497 kts | 106° |
| 2026-05-01 14:06 | 55.75971 | -4.71312 | 39097 ft | 497 kts | 106° |
| 2026-05-01 14:07 | 55.74451 | -4.59334 | 39129 ft | 497 kts | 106° |
| 2026-05-01 14:08 | 55.72151 | -4.41394 | 39115 ft | 497 kts | 106° |
| 2026-05-01 14:08 | 55.70602 | -4.29435 | 39111 ft | 497 kts | 106° |
| 2026-05-01 14:09 | 55.69040 | -4.17482 | 39121 ft | 497 kts | 106° |
| 2026-05-01 14:09 | 55.67469 | -4.05547 | 39119 ft | 497 kts | 107° |
| 2026-05-01 14:10 | 55.65886 | -3.93634 | 39119 ft | 497 kts | 107° |
| 2026-05-01 14:10 | 55.64290 | -3.81708 | 39114 ft | 498 kts | 107° |
| 2026-05-01 14:11 | 55.62682 | -3.69793 | 39118 ft | 498 kts | 107° |
| 2026-05-01 14:11 | 55.60247 | -3.51925 | 39118 ft | 498 kts | 107° |
| 2026-05-01 14:12 | 55.58608 | -3.40019 | 39124 ft | 499 kts | 107° |
| 2026-05-01 14:12 | 55.56967 | -3.28187 | 39092 ft | 499 kts | 107° |
| 2026-05-01 14:13 | 55.55574 | -3.18216 | 39102 ft | 499 kts | 107° |
| 2026-05-01 14:13 | 55.53616 | -3.04309 | 39101 ft | 500 kts | 107° |
| 2026-05-01 14:14 | 55.51939 | -2.92498 | 39116 ft | 500 kts | 107° |
| 2026-05-01 14:14 | 55.50236 | -2.80599 | 39101 ft | 500 kts | 107° |
| 2026-05-01 14:15 | 55.48527 | -2.68739 | 39102 ft | 499 kts | 107° |
| 2026-05-01 14:15 | 55.46805 | -2.56881 | 39099 ft | 499 kts | 107° |
| 2026-05-01 14:16 | 55.45071 | -2.45031 | 39097 ft | 499 kts | 107° |
| 2026-05-01 14:16 | 55.43328 | -2.33210 | 39097 ft | 499 kts | 107° |
| 2026-05-01 14:17 | 55.41573 | -2.21394 | 39080 ft | 499 kts | 107° |
| 2026-05-01 14:17 | 55.39806 | -2.09580 | 39087 ft | 499 kts | 108° |
| 2026-05-01 14:18 | 55.38037 | -1.97831 | 39097 ft | 499 kts | 108° |
| 2026-05-01 14:18 | 55.36553 | -1.88048 | 39097 ft | 499 kts | 108° |
| 2026-05-01 14:19 | 55.34446 | -1.74282 | 39126 ft | 499 kts | 108° |
| 2026-05-01 14:19 | 55.32640 | -1.62571 | 39118 ft | 499 kts | 108° |
| 2026-05-01 14:20 | 55.29903 | -1.44962 | 39125 ft | 498 kts | 108° |
| 2026-05-01 14:21 | 55.28064 | -1.33232 | 39122 ft | 499 kts | 108° |
| 2026-05-01 14:21 | 55.26220 | -1.21552 | 39120 ft | 499 kts | 108° |
| 2026-05-01 14:22 | 55.23438 | -1.04080 | 39114 ft | 497 kts | 109° |
| 2026-05-01 14:22 | 55.21565 | -0.92422 | 39120 ft | 497 kts | 109° |
| 2026-05-01 14:23 | 55.19705 | -0.80918 | 39129 ft | 496 kts | 109° |
| 2026-05-01 14:23 | 55.17801 | -0.69232 | 39130 ft | 496 kts | 109° |
| 2026-05-01 14:24 | 55.15915 | -0.57728 | 39132 ft | 495 kts | 109° |
| 2026-05-01 14:24 | 55.14006 | -0.46159 | 39133 ft | 495 kts | 109° |
| 2026-05-01 14:25 | 55.12084 | -0.34592 | 39143 ft | 495 kts | 109° |
| 2026-05-01 14:25 | 55.10151 | -0.23035 | 39145 ft | 496 kts | 109° |
| 2026-05-01 14:26 | 55.07238 | -0.05764 | 39144 ft | 496 kts | 109° |
| 2026-05-01 14:27 | 55.05277 | 0.05770 | 39142 ft | 497 kts | 109° |
| 2026-05-01 14:27 | 55.03299 | 0.17328 | 39153 ft | 498 kts | 109° |
| 2026-05-01 14:28 | 55.00302 | 0.34699 | 39150 ft | 500 kts | 110° |
| 2026-05-01 14:28 | 54.98287 | 0.46284 | 39162 ft | 500 kts | 110° |
| 2026-05-01 14:29 | 54.96260 | 0.57865 | 39151 ft | 501 kts | 110° |
| 2026-05-01 14:30 | 54.92178 | 0.80958 | 39168 ft | 500 kts | 110° |
| 2026-05-01 14:31 | 54.89085 | 0.98264 | 39173 ft | 499 kts | 110° |
| 2026-05-01 14:31 | 54.87014 | 1.09761 | 39163 ft | 499 kts | 110° |
| 2026-05-01 14:32 | 54.84934 | 1.21235 | 39175 ft | 498 kts | 111° |
| 2026-05-01 14:32 | 54.82861 | 1.32598 | 39182 ft | 497 kts | 111° |
| 2026-05-01 14:33 | 54.80766 | 1.44013 | 39179 ft | 497 kts | 111° |
| 2026-05-01 14:33 | 54.78663 | 1.55403 | 39189 ft | 496 kts | 111° |
| 2026-05-01 14:34 | 54.76905 | 1.64869 | 39178 ft | 496 kts | 111° |
| 2026-05-01 14:34 | 54.74786 | 1.76220 | 39191 ft | 496 kts | 111° |
| 2026-05-01 14:35 | 54.72653 | 1.87570 | 39191 ft | 495 kts | 111° |
| 2026-05-01 14:35 | 54.70517 | 1.98874 | 39202 ft | 495 kts | 111° |
| 2026-05-01 14:36 | 54.68369 | 2.10175 | 39195 ft | 494 kts | 111° |
| 2026-05-01 14:36 | 54.66211 | 2.21457 | 39195 ft | 494 kts | 111° |
| 2026-05-01 14:37 | 54.64045 | 2.32715 | 39205 ft | 494 kts | 111° |
| 2026-05-01 14:37 | 54.61865 | 2.43979 | 39209 ft | 495 kts | 111° |
| 2026-05-01 14:38 | 54.59676 | 2.55227 | 39207 ft | 495 kts | 111° |
| 2026-05-01 14:38 | 54.57473 | 2.66478 | 39213 ft | 495 kts | 111° |
| 2026-05-01 14:39 | 54.55262 | 2.77704 | 39208 ft | 495 kts | 111° |
| 2026-05-01 14:39 | 54.53039 | 2.88929 | 39217 ft | 495 kts | 111° |
| 2026-05-01 14:40 | 54.50804 | 3.00151 | 39222 ft | 495 kts | 112° |
| 2026-05-01 14:40 | 54.48559 | 3.11355 | 39218 ft | 495 kts | 112° |
| 2026-05-01 14:41 | 54.46305 | 3.22540 | 39217 ft | 495 kts | 112° |
| 2026-05-01 14:41 | 54.44038 | 3.33732 | 39230 ft | 495 kts | 112° |
| 2026-05-01 14:42 | 54.41761 | 3.44906 | 39231 ft | 495 kts | 112° |
| 2026-05-01 14:42 | 54.39491 | 3.55983 | 39231 ft | 495 kts | 112° |
| 2026-05-01 14:43 | 54.37210 | 3.67052 | 39234 ft | 495 kts | 112° |
| 2026-05-01 14:43 | 54.34904 | 3.78181 | 39224 ft | 495 kts | 112° |
| 2026-05-01 14:44 | 54.32588 | 3.89296 | 39237 ft | 496 kts | 112° |
| 2026-05-01 14:44 | 54.29090 | 4.05971 | 39245 ft | 496 kts | 112° |
| 2026-05-01 14:45 | 54.25585 | 4.22550 | 39243 ft | 497 kts | 112° |
| 2026-05-01 14:46 | 54.23427 | 4.33775 | 39247 ft | 498 kts | 105° |
| 2026-05-01 14:46 | 54.21228 | 4.51139 | 39249 ft | 499 kts | 104° |
| 2026-05-01 14:47 | 54.19761 | 4.62738 | 39251 ft | 499 kts | 104° |
| 2026-05-01 14:48 | 54.17512 | 4.79966 | 39248 ft | 499 kts | 104° |
| 2026-05-01 14:48 | 54.15215 | 4.97218 | 39253 ft | 499 kts | 104° |
| 2026-05-01 14:49 | 54.12110 | 5.20258 | 39248 ft | 498 kts | 105° |
| 2026-05-01 14:50 | 54.08968 | 5.43224 | 39251 ft | 498 kts | 104° |
| 2026-05-01 14:51 | 54.06579 | 5.60452 | 39253 ft | 498 kts | 105° |
| 2026-05-01 14:52 | 54.04165 | 5.77657 | 39256 ft | 499 kts | 105° |
| 2026-05-01 14:53 | 54.01739 | 5.94761 | 39259 ft | 499 kts | 105° |
| 2026-05-01 14:53 | 54.00096 | 6.06234 | 39258 ft | 499 kts | 105° |
| 2026-05-01 14:54 | 53.98447 | 6.17665 | 39258 ft | 499 kts | 105° |
| 2026-05-01 14:54 | 53.96784 | 6.29114 | 39258 ft | 499 kts | 105° |
| 2026-05-01 14:55 | 53.95111 | 6.40535 | 39258 ft | 499 kts | 105° |
| 2026-05-01 14:55 | 53.93427 | 6.51961 | 39270 ft | 499 kts | 105° |
| 2026-05-01 14:56 | 53.91731 | 6.63382 | 39262 ft | 499 kts | 105° |
| 2026-05-01 14:56 | 53.90025 | 6.74790 | 39270 ft | 499 kts | 105° |
| 2026-05-01 14:57 | 53.88304 | 6.86209 | 39271 ft | 499 kts | 104° |
| 2026-05-01 14:57 | 53.85711 | 7.03269 | 39278 ft | 499 kts | 105° |
| 2026-05-01 14:58 | 53.83965 | 7.14660 | 39272 ft | 499 kts | 105° |
| 2026-05-01 14:58 | 53.82209 | 7.26033 | 39269 ft | 499 kts | 105° |
| 2026-05-01 14:59 | 53.80443 | 7.37390 | 39271 ft | 499 kts | 105° |
| 2026-05-01 14:59 | 53.78663 | 7.48756 | 39269 ft | 500 kts | 105° |
| 2026-05-01 15:00 | 53.75973 | 7.65794 | 39286 ft | 500 kts | 105° |
| 2026-05-01 15:01 | 53.74164 | 7.77156 | 39282 ft | 501 kts | 105° |
| 2026-05-01 15:01 | 53.72340 | 7.88523 | 39295 ft | 502 kts | 105° |
| 2026-05-01 15:02 | 53.70519 | 7.99805 | 39297 ft | 504 kts | 105° |
| 2026-05-01 15:02 | 53.68663 | 8.11226 | 39284 ft | 504 kts | 105° |
| 2026-05-01 15:03 | 53.66799 | 8.22626 | 39301 ft | 503 kts | 105° |
| 2026-05-01 15:03 | 53.64937 | 8.33929 | 39317 ft | 503 kts | 105° |
| 2026-05-01 15:04 | 53.63055 | 8.45278 | 39311 ft | 503 kts | 105° |
| 2026-05-01 15:04 | 53.61164 | 8.56610 | 39319 ft | 503 kts | 105° |
| 2026-05-01 15:05 | 53.59261 | 8.67941 | 39319 ft | 502 kts | 105° |
| 2026-05-01 15:05 | 53.57349 | 8.79250 | 39316 ft | 503 kts | 105° |
| 2026-05-01 15:06 | 53.55428 | 8.90538 | 39322 ft | 502 kts | 105° |
| 2026-05-01 15:06 | 53.53498 | 9.01802 | 39319 ft | 501 kts | 106° |
| 2026-05-01 15:07 | 53.51561 | 9.13044 | 39316 ft | 501 kts | 106° |
| 2026-05-01 15:07 | 53.49612 | 9.24282 | 39206 ft | 500 kts | 106° |
| 2026-05-01 15:07 | 53.48635 | 9.29887 | 38924 ft | 499 kts | 106° |
| 2026-05-01 15:08 | 53.47664 | 9.35445 | 38718 ft | 493 kts | 106° |
| 2026-05-01 15:08 | 53.46688 | 9.41010 | 38480 ft | 489 kts | 106° |
| 2026-05-01 15:08 | 53.45723 | 9.46495 | 38256 ft | 490 kts | 106° |
| 2026-05-01 15:08 | 53.44753 | 9.51900 | 38042 ft | 491 kts | 107° |
| 2026-05-01 15:09 | 53.43693 | 9.57384 | 37833 ft | 492 kts | 108° |
| 2026-05-01 15:09 | 53.42605 | 9.62782 | 37625 ft | 492 kts | 109° |
| 2026-05-01 15:09 | 53.41480 | 9.68286 | 37402 ft | 492 kts | 109° |
| 2026-05-01 15:09 | 53.40374 | 9.73705 | 37193 ft | 492 kts | 109° |
| 2026-05-01 15:10 | 53.39286 | 9.79062 | 36982 ft | 491 kts | 109° |
| 2026-05-01 15:10 | 53.37081 | 9.89972 | 36458 ft | 492 kts | 109° |
| 2026-05-01 15:10 | 53.35891 | 9.95338 | 36055 ft | 494 kts | 112° |
| 2026-05-01 15:11 | 53.34553 | 10.00655 | 35707 ft | 495 kts | 114° |
| 2026-05-01 15:11 | 53.31793 | 10.11067 | 35028 ft | 495 kts | 115° |
| 2026-05-01 15:11 | 53.30402 | 10.16351 | 34702 ft | 495 kts | 114° |
| 2026-05-01 15:12 | 53.29030 | 10.21632 | 34338 ft | 495 kts | 114° |
| 2026-05-01 15:12 | 53.26314 | 10.32220 | 33488 ft | 495 kts | 114° |
| 2026-05-01 15:12 | 53.24980 | 10.37436 | 33094 ft | 494 kts | 113° |
| 2026-05-01 15:13 | 53.20915 | 10.53261 | 31653 ft | 495 kts | 114° |
| 2026-05-01 15:14 | 53.18179 | 10.63834 | 30463 ft | 499 kts | 113° |
| 2026-05-01 15:14 | 53.16783 | 10.69209 | 29961 ft | 497 kts | 114° |
| 2026-05-01 15:14 | 53.14028 | 10.79779 | 28360 ft | 502 kts | 113° |
| 2026-05-01 15:15 | 53.11281 | 10.90266 | 27683 ft | 488 kts | 114° |
| 2026-05-01 15:15 | 53.08554 | 11.00627 | 27289 ft | 492 kts | 114° |
| 2026-05-01 15:16 | 53.05724 | 11.10943 | 26857 ft | 484 kts | 118° |
| 2026-05-01 15:16 | 53.02155 | 11.20273 | 26460 ft | 482 kts | 124° |
| 2026-05-01 15:17 | 52.99917 | 11.25658 | 26236 ft | 482 kts | 124° |
| 2026-05-01 15:18 | 52.96685 | 11.33620 | 25887 ft | 480 kts | 123° |
| 2026-05-01 15:18 | 52.94863 | 11.38244 | 25623 ft | 477 kts | 122° |
| 2026-05-01 15:19 | 52.90125 | 11.50499 | 25365 ft | 474 kts | 122° |
| 2026-05-01 15:19 | 52.86717 | 11.59325 | 24974 ft | 446 kts | 122° |
| 2026-05-01 15:19 | 52.85056 | 11.63611 | 24386 ft | 441 kts | 122° |
| 2026-05-01 15:20 | 52.81744 | 11.72121 | 22913 ft | 433 kts | 122° |
| 2026-05-01 15:20 | 52.80129 | 11.76258 | 22197 ft | 429 kts | 122° |
| 2026-05-01 15:20 | 52.78528 | 11.80351 | 21531 ft | 425 kts | 122° |
| 2026-05-01 15:21 | 52.76934 | 11.84419 | 20859 ft | 421 kts | 122° |
| 2026-05-01 15:21 | 52.75365 | 11.88420 | 20209 ft | 418 kts | 122° |
| 2026-05-01 15:21 | 52.73776 | 11.92465 | 19556 ft | 414 kts | 122° |
| 2026-05-01 15:21 | 52.72226 | 11.96403 | 18917 ft | 412 kts | 122° |
| 2026-05-01 15:22 | 52.69109 | 12.04309 | 17517 ft | 401 kts | 122° |
| 2026-05-01 15:22 | 52.67610 | 12.08101 | 16887 ft | 392 kts | 122° |
| 2026-05-01 15:22 | 52.66127 | 12.11847 | 16305 ft | 390 kts | 122° |
| 2026-05-01 15:23 | 52.64660 | 12.15550 | 15705 ft | 387 kts | 122° |
| 2026-05-01 15:23 | 52.63193 | 12.19245 | 15118 ft | 385 kts | 122° |
| 2026-05-01 15:23 | 52.63093 | 12.19497 | 15086 ft | 385 kts | 122° |
| 2026-05-01 15:23 | 52.61710 | 12.22972 | 14548 ft | 383 kts | 122° |
| 2026-05-01 15:24 | 52.60269 | 12.26588 | 13932 ft | 363 kts | 122° |
| 2026-05-01 15:24 | 52.58915 | 12.29986 | 13369 ft | 358 kts | 122° |
| 2026-05-01 15:24 | 52.57880 | 12.32579 | 12958 ft | 357 kts | 122° |
| 2026-05-01 15:25 | 52.56833 | 12.35200 | 12536 ft | 357 kts | 123° |
| 2026-05-01 15:25 | 52.55455 | 12.38646 | 11987 ft | 356 kts | 123° |
| 2026-05-01 15:25 | 52.54113 | 12.41996 | 11405 ft | 355 kts | 123° |
| 2026-05-01 15:25 | 52.52783 | 12.45313 | 10898 ft | 336 kts | 123° |
| 2026-05-01 15:26 | 52.51563 | 12.48401 | 10658 ft | 310 kts | 123° |
| 2026-05-01 15:26 | 52.50388 | 12.51182 | 10551 ft | 285 kts | 125° |
| 2026-05-01 15:26 | 52.49258 | 12.53753 | 10431 ft | 270 kts | 126° |
| 2026-05-01 15:26 | 52.48140 | 12.56258 | 10361 ft | 276 kts | 126° |
| 2026-05-01 15:27 | 52.46995 | 12.58803 | 10261 ft | 276 kts | 126° |
| 2026-05-01 15:27 | 52.45840 | 12.61358 | 10136 ft | 275 kts | 126° |
| 2026-05-01 15:27 | 52.44717 | 12.63837 | 10020 ft | 273 kts | 126° |
| 2026-05-01 15:28 | 52.42443 | 12.68907 | 9410 ft | 279 kts | 125° |
| 2026-05-01 15:28 | 52.41311 | 12.71483 | 9043 ft | 279 kts | 126° |
| 2026-05-01 15:28 | 52.39991 | 12.73683 | 8917 ft | 265 kts | 141° |
| 2026-05-01 15:29 | 52.37017 | 12.77100 | 8913 ft | 264 kts | 144° |
| 2026-05-01 15:29 | 52.35470 | 12.78808 | 8699 ft | 273 kts | 144° |
| 2026-05-01 15:29 | 52.32300 | 12.82314 | 8011 ft | 275 kts | 144° |
| 2026-05-01 15:30 | 52.29808 | 12.86700 | 7141 ft | 261 kts | 115° |
| 2026-05-01 15:31 | 52.27852 | 12.97081 | 5744 ft | 233 kts | 95° |
| 2026-05-01 15:31 | 52.27561 | 13.02294 | 5236 ft | 230 kts | 95° |
| 2026-05-01 15:32 | 52.27297 | 13.07476 | 4584 ft | 226 kts | 89° |
| 2026-05-01 15:32 | 52.28214 | 13.12423 | 4035 ft | 235 kts | 69° |
| 2026-05-01 15:33 | 52.29886 | 13.19568 | 3810 ft | 214 kts | 68° |
| 2026-05-01 15:34 | 52.31490 | 13.26302 | 2976 ft | 211 kts | 68° |